< < Back
Terminal Aerodrome Forecast


Current Version              Previous Versions:   1  2  3  4  5  6  7  8  9  

Terminal Aerodrome Forecast

363
FTUS44 KHUN 191120
TAFHSV
TAF
KHSV 191120Z 1912/2012 00000KT P6SM SCT090
     FM191400 12004KT P6SM SKC
     FM191700 12006KT P6SM SCT040
     FM200400 00000KT P6SM SCT025=



Latest METAR

659
SAUS80 KWBC 191200
MTRHSV
METAR KHSV 191153Z 09003KT 10SM FEW085 19/16 A3003 RMK AO2 SLP163
T01890161 10206 20183 53009


USA.gov is the U.S. government's official web portal to all federal, state and local government web resources and services.